Time;durP1;ratioP1;P1;durP2;ratioP2;P2;SDS_P1;SDS_P2;PMS_P1;PMS_P2;Temp;Humidity;BMP_temperature;BMP_pressure;BME280_temperature;BME280_humidity;BME280_pressure;Samples;Min_cycle;Max_cycle;Signal;HPM_P1;HPM_P2
2021/03/22 00:00:42;;;;;;;10.88;9.68;;;;;;;0.64;89.10;98129.12;1774974;79;21479;-59
2021/03/22 00:03:10;;;;;;;11.33;9.30;;;;;;;0.63;88.81;98126.66;1774999;78;21551;-57
2021/03/22 00:05:38;;;;;;;11.65;10.45;;;;;;;0.62;88.56;98121.91;1775877;79;21117;-57
2021/03/22 00:08:06;;;;;;;12.80;10.13;;;;;;;0.59;88.43;98126.11;1770245;79;21479;-59
2021/03/22 00:10:35;;;;;;;11.35;10.15;;;;;;;0.60;88.46;98122.03;1776265;78;21483;-59
2021/03/22 00:13:04;;;;;;;10.58;9.43;;;;;;;0.63;88.45;98115.21;1765732;79;21476;-58
2021/03/22 00:15:35;;;;;;;11.00;9.90;;;;;;;0.65;88.40;98117.70;1778262;79;20948;-59
2021/03/22 00:18:05;;;;;;;11.15;9.95;;;;;;;0.69;88.38;98109.06;1762634;79;21017;-57
2021/03/22 00:20:36;;;;;;;11.57;10.30;;;;;;;0.69;88.24;98105.97;1765823;79;20967;-58
2021/03/22 00:23:06;;;;;;;10.98;9.83;;;;;;;0.64;88.08;98109.50;1752353;79;21507;-59
2021/03/22 00:25:35;;;;;;;10.63;9.63;;;;;;;0.59;88.32;98106.48;1747285;79;21084;-58
2021/03/22 00:28:05;;;;;;;12.58;9.95;;;;;;;0.55;88.36;98103.31;1764565;79;21040;-59
2021/03/22 00:30:36;;;;;;;9.70;8.70;;;;;;;0.55;88.61;98103.31;1739712;81;21111;-58
2021/03/22 00:33:04;;;;;;;12.88;10.75;;;;;;;0.57;88.69;98110.53;1768183;79;20961;-59
2021/03/22 00:35:32;;;;;;;13.40;10.78;;;;;;;0.56;88.61;98103.66;1790216;79;21144;-59
2021/03/22 00:37:59;;;;;;;12.60;10.00;;;;;;;0.53;88.60;98100.02;1779079;79;21121;-58
2021/03/22 00:40:30;;;;;;;10.35;9.28;;;;;;;0.50;88.68;98096.37;1777955;79;21209;-59
2021/03/22 00:42:57;;;;;;;11.12;9.83;;;;;;;0.50;88.84;98098.98;1773863;79;20990;-60
2021/03/22 00:45:25;;;;;;;10.88;9.78;;;;;;;0.48;88.99;98100.09;1773833;79;21025;-60
2021/03/22 00:47:54;;;;;;;11.93;10.72;;;;;;;0.47;89.05;98094.02;1776001;79;20978;-60
2021/03/22 00:50:29;;;;;;;11.28;10.18;;;;;;;0.46;89.35;98094.17;1775432;78;21139;-59
2021/03/22 00:52:57;;;;;;;11.60;10.30;;;;;;;0.47;89.34;98099.26;1800189;78;21347;-58
2021/03/22 00:55:25;;;;;;;16.37;10.08;;;;;;;0.46;89.22;98092.39;1782328;78;21108;-59
2021/03/22 00:57:53;;;;;;;10.75;9.65;;;;;;;0.46;89.36;98085.85;1777905;79;20985;-57
2021/03/22 01:00:31;;;;;;;11.60;10.30;;;;;;;0.45;89.27;98088.11;1779673;79;21128;-58
2021/03/22 01:02:58;;;;;;;13.32;11.60;;;;;;;0.45;89.40;98086.80;1764422;80;21531;-57
2021/03/22 01:05:27;;;;;;;11.95;10.63;;;;;;;0.48;89.42;98087.00;1773832;79;21374;-58
2021/03/22 01:07:54;;;;;;;10.85;9.75;;;;;;;0.52;89.49;98085.27;1793074;79;21061;-58
2021/03/22 01:10:46;;;;;;;11.33;10.23;;;;;;;0.57;89.29;98083.56;1797733;78;21057;-59
2021/03/22 01:13:20;;;;;;;12.98;10.35;;;;;;;0.58;89.06;98088.64;1773841;79;21567;-59
2021/03/22 01:15:47;;;;;;;12.05;10.50;;;;;;;0.59;89.08;98085.06;1773860;79;21148;-58
2021/03/22 01:18:18;;;;;;;13.50;11.25;;;;;;;0.60;89.06;98084.08;1779233;79;21378;-59
2021/03/22 01:20:54;;;;;;;13.90;12.33;;;;;;;0.59;88.96;98084.23;1800653;79;21486;-57
2021/03/22 01:23:21;;;;;;;14.90;13.20;;;;;;;0.59;89.00;98076.38;1778405;79;21013;-57
2021/03/22 01:25:49;;;;;;;12.88;11.05;;;;;;;0.59;88.98;98069.84;1773854;79;21045;-58
2021/03/22 01:28:17;;;;;;;12.60;11.03;;;;;;;0.63;89.01;98062.54;1777822;79;21113;-58
2021/03/22 01:30:52;;;;;;;11.97;10.75;;;;;;;0.63;88.99;98065.48;1774087;79;21361;-59
2021/03/22 01:33:24;;;;;;;11.53;9.65;;;;;;;0.66;88.97;98051.77;1777072;79;21243;-58
2021/03/22 01:35:50;;;;;;;13.62;11.33;;;;;;;0.64;89.09;98055.84;1783602;79;21566;-57
2021/03/22 01:38:18;;;;;;;14.00;11.95;;;;;;;0.61;89.12;98054.34;1790588;79;21119;-58
2021/03/22 01:41:08;;;;;;;12.63;11.25;;;;;;;0.57;89.28;98050.84;1794213;79;20910;-57
2021/03/22 01:43:50;;;;;;;13.55;11.73;;;;;;;0.56;89.46;98052.63;1807606;79;21418;-58
2021/03/22 01:46:27;;;;;;;14.07;12.05;;;;;;;0.60;89.73;98051.36;1836442;78;28040;-59
2021/03/22 01:48:55;;;;;;;15.53;12.93;;;;;;;0.54;89.77;98054.58;1782051;79;20985;-57
2021/03/22 01:51:23;;;;;;;13.45;12.13;;;;;;;0.53;90.10;98056.00;1793564;79;21409;-58
2021/03/22 01:53:50;;;;;;;15.32;12.63;;;;;;;0.52;90.31;98060.41;1796072;77;20981;-57
2021/03/22 01:56:23;;;;;;;18.92;13.28;;;;;;;0.53;90.56;98057.31;1780264;79;21028;-59
2021/03/22 01:58:52;;;;;;;13.98;12.40;;;;;;;0.54;90.74;98053.73;1782286;79;21185;-57
2021/03/22 02:01:21;;;;;;;13.03;11.15;;;;;;;0.55;91.00;98061.44;1780291;79;21009;-58
2021/03/22 02:03:49;;;;;;;15.50;11.50;;;;;;;0.54;91.12;98055.05;1796216;78;21142;-58
2021/03/22 02:06:17;;;;;;;14.55;13.03;;;;;;;0.53;91.16;98054.22;1776841;79;21065;-58
2021/03/22 02:08:45;;;;;;;16.85;13.93;;;;;;;0.51;91.19;98048.78;1781437;78;21072;-57
2021/03/22 02:11:24;;;;;;;18.75;14.90;;;;;;;0.48;91.33;98049.06;1772674;80;20952;-59
2021/03/22 02:13:54;;;;;;;13.88;12.28;;;;;;;0.47;91.52;98052.67;1777089;79;21484;-60
2021/03/22 02:17:02;;;;;;;14.90;12.45;;;;;;;0.48;91.63;98042.52;1731807;79;21561;-59
2021/03/22 02:20:10;;;;;;;13.38;11.48;;;;;;;0.47;91.68;98041.69;1788760;79;21132;-58
2021/03/22 02:23:08;;;;;;;14.23;12.25;;;;;;;0.50;91.82;98034.87;1791472;79;21020;-59
2021/03/22 02:25:55;;;;;;;15.45;13.53;;;;;;;0.51;91.74;98035.70;1777421;79;20933;-58
2021/03/22 02:28:46;;;;;;;13.80;11.20;;;;;;;0.50;91.83;98036.66;1796706;78;20914;-58
2021/03/22 02:31:55;;;;;;;14.83;11.75;;;;;;;0.51;91.94;98028.69;1789958;78;21207;-58
2021/03/22 02:34:37;;;;;;;12.68;11.35;;;;;;;0.52;91.93;98031.62;1776061;79;21087;-59
2021/03/22 02:37:49;;;;;;;14.10;12.53;;;;;;;0.54;91.94;98034.95;1813384;78;28235;-57
2021/03/22 02:40:30;;;;;;;14.58;12.10;;;;;;;0.49;91.93;98037.64;1801176;79;21018;-59
2021/03/22 02:42:59;;;;;;;15.08;12.88;;;;;;;0.49;91.98;98034.55;1792719;79;21345;-58
2021/03/22 02:45:33;;;;;;;16.07;12.13;;;;;;;0.49;92.12;98028.48;1796658;78;21005;-59
2021/03/22 02:48:00;;;;;;;14.13;12.43;;;;;;;0.50;92.05;98033.56;1789378;79;21021;-59
2021/03/22 02:50:33;;;;;;;14.75;13.22;;;;;;;0.51;92.19;98031.78;1788369;78;21009;-58
2021/03/22 02:53:39;;;;;;;15.13;13.48;;;;;;;0.54;92.19;98031.02;1788271;79;20926;-58
2021/03/22 02:56:47;;;;;;;15.95;13.78;;;;;;;0.54;92.08;98030.19;1786481;78;21192;-58
2021/03/22 02:59:20;;;;;;;17.98;14.83;;;;;;;0.54;92.11;98027.09;1805202;78;20966;-57
2021/03/22 03:01:58;;;;;;;14.03;12.63;;;;;;;0.53;92.05;98035.90;1806195;79;20926;-60
2021/03/22 03:04:25;;;;;;;19.07;13.03;;;;;;;0.49;92.06;98029.80;1779330;79;21614;-59
2021/03/22 03:06:58;;;;;;;15.98;13.95;;;;;;;0.45;92.21;98032.34;1791301;79;21479;-58
2021/03/22 03:09:36;;;;;;;14.50;12.73;;;;;;;0.46;92.46;98030.08;1795221;79;21363;-58
2021/03/22 03:12:17;;;;;;;15.83;13.78;;;;;;;0.49;92.56;98029.80;1776991;78;22367;-59
2021/03/22 03:14:49;;;;;;;15.10;12.40;;;;;;;0.52;92.57;98034.23;1778151;78;21005;-57
2021/03/22 03:17:17;;;;;;;15.80;13.18;;;;;;;0.56;92.45;98032.17;1766360;79;20986;-59
2021/03/22 03:19:46;;;;;;;14.38;12.18;;;;;;;0.57;92.24;98025.47;1780325;79;21005;-57
2021/03/22 03:22:13;;;;;;;14.25;11.83;;;;;;;0.58;92.26;98028.92;1801239;79;21368;-57
2021/03/22 03:24:41;;;;;;;14.18;12.40;;;;;;;0.60;92.18;98026.50;1772007;79;20953;-59
2021/03/22 03:27:09;;;;;;;15.45;13.90;;;;;;;0.62;92.09;98026.37;1758257;79;20992;-59
2021/03/22 03:29:37;;;;;;;15.55;14.05;;;;;;;0.60;92.00;98027.81;1778538;79;20994;-60
2021/03/22 03:32:06;;;;;;;13.40;12.00;;;;;;;0.63;92.03;98020.66;1769130;79;21157;-59
2021/03/22 03:34:34;;;;;;;15.08;12.55;;;;;;;0.63;91.99;98016.23;1777961;79;21376;-58
2021/03/22 03:37:02;;;;;;;14.33;12.53;;;;;;;0.61;91.90;98020.31;1752537;79;21125;-59
2021/03/22 03:39:30;;;;;;;16.37;13.70;;;;;;;0.63;92.01;98030.15;1768058;79;20982;-59
2021/03/22 03:41:57;;;;;;;16.50;14.80;;;;;;;0.64;91.99;98028.36;1758368;79;21092;-58
2021/03/22 03:44:25;;;;;;;16.40;14.07;;;;;;;0.69;92.03;98027.92;1747758;79;21155;-59
2021/03/22 03:46:52;;;;;;;15.55;13.08;;;;;;;0.71;91.83;98024.19;1782782;79;21318;-58
2021/03/22 03:49:20;;;;;;;12.50;11.20;;;;;;;0.73;91.63;98027.99;1753413;79;21013;-59
2021/03/22 03:51:48;;;;;;;13.80;11.97;;;;;;;0.70;91.55;98029.11;1795947;79;20964;-59
2021/03/22 03:54:15;;;;;;;15.98;14.13;;;;;;;0.71;91.53;98022.05;1749448;79;21107;-58
2021/03/22 03:56:43;;;;;;;16.82;14.87;;;;;;;0.70;91.40;98021.73;1777827;78;21124;-58
2021/03/22 03:59:12;;;;;;;16.32;14.47;;;;;;;0.68;91.53;98024.47;1771288;78;21363;-58
2021/03/22 04:01:39;;;;;;;14.60;12.85;;;;;;;0.69;91.63;98024.00;1781269;78;20942;-59
2021/03/22 04:04:21;;;;;;;15.53;13.85;;;;;;;0.71;91.51;98025.98;1682090;83;21040;-59
2021/03/22 04:06:49;;;;;;;15.45;12.70;;;;;;;0.72;91.52;98028.47;1698484;83;20953;-59
2021/03/22 04:09:19;;;;;;;15.25;13.65;;;;;;;0.73;91.49;98026.69;1687705;83;21167;-59
2021/03/22 04:11:47;;;;;;;17.42;14.00;;;;;;;0.72;91.34;98029.78;1672831;84;21285;-60
2021/03/22 04:14:25;;;;;;;13.70;12.35;;;;;;;0.69;91.34;98022.20;1659313;85;21608;-59
2021/03/22 04:16:53;;;;;;;16.52;13.85;;;;;;;0.69;91.46;98020.91;1720488;82;21054;-60
2021/03/22 04:19:22;;;;;;;18.12;14.35;;;;;;;0.68;91.42;98021.86;1718975;81;20942;-58
2021/03/22 04:21:51;;;;;;;15.30;13.70;;;;;;;0.69;91.43;98031.84;1712345;81;21520;-60
2021/03/22 04:24:19;;;;;;;17.57;14.00;;;;;;;0.68;91.37;98032.33;1710568;81;21549;-60
2021/03/22 04:26:46;;;;;;;16.95;13.40;;;;;;;0.70;91.41;98032.20;1720472;83;21031;-60
2021/03/22 04:29:14;;;;;;;17.05;14.07;;;;;;;0.69;91.43;98037.91;1719205;83;21111;-59
2021/03/22 04:31:42;;;;;;;18.80;14.43;;;;;;;0.68;91.41;98031.02;1718185;81;20951;-59
2021/03/22 04:34:12;;;;;;;26.15;16.97;;;;;;;0.68;91.43;98025.78;1712673;82;21130;-59
2021/03/22 04:36:40;;;;;;;23.20;17.25;;;;;;;0.67;91.41;98033.31;1728847;81;21152;-59
2021/03/22 04:39:08;;;;;;;22.52;16.12;;;;;;;0.67;91.47;98037.24;1726234;81;21009;-58
2021/03/22 04:41:36;;;;;;;18.07;14.90;;;;;;;0.66;91.44;98037.36;1749193;81;20993;-59
2021/03/22 04:44:06;;;;;;;18.75;14.95;;;;;;;0.67;91.54;98041.16;1751842;81;21613;-59
2021/03/22 04:46:33;;;;;;;19.98;14.75;;;;;;;0.66;91.55;98038.67;1752542;81;21585;-58
2021/03/22 04:49:01;;;;;;;27.90;19.67;;;;;;;0.63;91.48;98036.37;1745732;81;21471;-57
2021/03/22 04:51:29;;;;;;;43.75;24.40;;;;;;;0.63;91.67;98035.38;1717701;82;21178;-59
2021/03/22 04:53:59;;;;;;;22.10;16.20;;;;;;;0.68;91.89;98034.14;1723261;81;21070;-58
2021/03/22 04:56:27;;;;;;;22.48;16.93;;;;;;;0.73;91.96;98037.95;1719999;81;21138;-58
2021/03/22 04:58:55;;;;;;;18.23;14.33;;;;;;;0.76;91.79;98044.22;1719743;81;21146;-60
2021/03/22 05:01:22;;;;;;;16.02;12.98;;;;;;;0.81;91.73;98044.61;1719299;81;21207;-59
2021/03/22 05:03:51;;;;;;;16.35;14.15;;;;;;;0.87;91.60;98051.06;1717751;82;21209;-59
2021/03/22 05:06:19;;;;;;;21.48;16.32;;;;;;;0.90;91.50;98051.61;1712487;81;20944;-59
2021/03/22 05:08:47;;;;;;;21.42;15.93;;;;;;;0.91;91.11;98055.90;1718251;82;21199;-59
2021/03/22 05:11:17;;;;;;;18.98;15.78;;;;;;;0.92;91.00;98061.94;1715455;81;21172;-58
2021/03/22 05:13:46;;;;;;;21.65;16.27;;;;;;;0.93;90.96;98064.42;1717002;82;21012;-58
2021/03/22 05:16:14;;;;;;;23.65;17.10;;;;;;;0.94;90.95;98071.80;1707639;81;21028;-58
2021/03/22 05:18:42;;;;;;;21.75;16.55;;;;;;;0.97;90.94;98068.39;1694144;82;21099;-59
2021/03/22 05:21:10;;;;;;;19.85;16.67;;;;;;;1.01;90.80;98071.55;1698676;82;21028;-57
2021/03/22 05:23:39;;;;;;;22.17;17.35;;;;;;;1.03;90.59;98073.54;1694272;82;21067;-59
2021/03/22 05:26:08;;;;;;;26.10;19.52;;;;;;;1.01;90.54;98071.08;1693420;82;21159;-59
2021/03/22 05:28:36;;;;;;;31.75;21.85;;;;;;;1.02;90.52;98083.19;1691415;83;21143;-57
2021/03/22 05:31:03;;;;;;;31.35;20.75;;;;;;;1.03;90.42;98077.47;1724863;82;21135;-58
2021/03/22 05:33:31;;;;;;;30.75;21.00;;;;;;;1.08;90.48;98089.16;1746198;82;21056;-58
2021/03/22 05:36:00;;;;;;;32.95;20.55;;;;;;;1.14;90.41;98092.53;1744819;82;21159;-58
2021/03/22 05:38:28;;;;;;;33.00;20.90;;;;;;;1.21;90.17;98090.97;1728566;82;22224;-57
2021/03/22 05:41:03;;;;;;;29.77;19.95;;;;;;;1.31;89.97;98093.53;1723166;82;21056;-58
2021/03/22 05:43:55;;;;;;;29.10;20.08;;;;;;;1.40;89.55;98097.91;1817891;78;28465;-59
2021/03/22 05:46:58;;;;;;;28.27;19.42;;;;;;;1.41;89.33;98094.81;1792421;79;20988;-59
2021/03/22 05:49:44;;;;;;;26.27;19.45;;;;;;;1.44;88.88;98097.11;1775492;79;21370;-59
2021/03/22 05:52:38;;;;;;;29.05;20.97;;;;;;;1.44;88.46;98101.88;1795004;79;20989;-57
2021/03/22 05:55:36;;;;;;;29.50;20.37;;;;;;;1.43;88.26;98100.25;1777675;79;20989;-59
2021/03/22 05:58:34;;;;;;;24.10;17.62;;;;;;;1.45;88.32;98102.70;1784174;79;21021;-59
2021/03/22 06:01:25;;;;;;;18.37;15.05;;;;;;;1.47;88.23;98106.83;1788874;78;21523;-59
2021/03/22 06:04:02;;;;;;;19.25;16.25;;;;;;;1.51;88.09;98108.69;1777064;78;21328;-58
2021/03/22 06:06:40;;;;;;;17.85;15.95;;;;;;;1.53;87.74;98108.05;1782868;78;20986;-60
2021/03/22 06:09:45;;;;;;;17.42;15.58;;;;;;;1.51;87.57;98109.99;1768495;79;20977;-58
2021/03/22 06:12:41;;;;;;;18.10;16.05;;;;;;;1.48;87.54;98114.21;1776906;79;20950;-59
2021/03/22 06:15:30;;;;;;;;;;;;;;;1.48;87.56;98115.52;1769677;79;20949;-58
2021/03/22 06:18:23;;;;;;;17.35;13.53;;;;;;;1.50;87.74;98120.13;1778702;79;21378;-61
2021/03/22 06:20:53;;;;;;;14.80;13.13;;;;;;;1.51;87.52;98123.90;1784866;79;21563;-63
2021/03/22 06:23:26;;;;;;;19.07;15.58;;;;;;;1.55;87.10;98125.75;1745404;81;20941;-56
2021/03/22 06:25:53;;;;;;;16.17;14.53;;;;;;;1.52;86.83;98126.04;1697212;83;21144;-61
2021/03/22 06:28:27;;;;;;;15.68;13.10;;;;;;;1.49;86.99;98126.33;1721077;82;21582;-61
2021/03/22 06:31:07;;;;;;;17.55;14.05;;;;;;;1.50;87.04;98134.54;1746288;79;22247;-61
2021/03/22 06:33:44;;;;;;;13.13;11.68;;;;;;;1.53;86.99;98139.02;1740298;82;21237;-59
2021/03/22 06:36:17;;;;;;;12.85;11.55;;;;;;;1.61;86.78;98139.59;1724489;79;21008;-60
2021/03/22 06:38:48;;;;;;;13.13;11.65;;;;;;;1.68;86.45;98142.79;1721955;81;21112;-59
2021/03/22 06:41:32;;;;;;;13.40;12.10;;;;;;;1.72;86.03;98143.33;1751410;80;21167;-63
2021/03/22 06:44:03;;;;;;;17.98;13.22;;;;;;;1.71;85.79;98152.16;1722507;82;21363;-57
2021/03/22 06:46:31;;;;;;;15.03;12.93;;;;;;;1.63;85.46;98161.23;1715701;82;21171;-58
2021/03/22 06:49:08;;;;;;;13.40;11.45;;;;;;;1.59;85.68;98165.94;1749165;79;20988;-65
2021/03/22 06:51:36;;;;;;;13.83;12.30;;;;;;;1.57;85.52;98166.58;1767985;81;21115;-58
2021/03/22 06:54:04;;;;;;;12.13;10.95;;;;;;;1.53;85.58;98173.57;1748115;79;21186;-58
2021/03/22 06:56:39;;;;;;;11.75;10.55;;;;;;;1.52;85.71;98177.15;1690911;81;21378;-60
2021/03/22 06:59:17;;;;;;;11.60;10.40;;;;;;;1.52;85.76;98182.39;1733113;80;21140;-57
2021/03/22 07:01:47;;;;;;;13.10;11.75;;;;;;;1.50;85.70;98188.27;1724844;82;21215;-58
2021/03/22 07:04:31;;;;;;;13.03;11.68;;;;;;;1.46;85.85;98182.48;1743186;79;21618;-59
2021/03/22 07:07:13;;;;;;;12.75;11.45;;;;;;;1.43;85.98;98188.52;1749968;81;21202;-58
2021/03/22 07:09:52;;;;;;;11.95;10.40;;;;;;;1.38;86.23;98199.44;1739535;81;21383;-58
2021/03/22 07:12:32;;;;;;;11.22;10.13;;;;;;;1.36;86.47;98192.66;1721119;82;21009;-59
2021/03/22 07:15:36;;;;;;;10.50;9.50;;;;;;;1.37;86.68;98203.49;1719279;82;21195;-59
2021/03/22 07:18:18;;;;;;;9.93;8.93;;;;;;;1.41;86.75;98197.81;1746900;80;21126;-58
2021/03/22 07:21:05;;;;;;;10.85;9.73;;;;;;;1.50;86.82;98195.66;1739582;82;21080;-59
2021/03/22 07:23:45;;;;;;;11.00;9.80;;;;;;;1.56;86.50;98200.33;1739534;82;21201;-59
2021/03/22 07:26:39;;;;;;;11.28;10.18;;;;;;;1.61;86.42;98201.20;1739574;82;20965;-59
2021/03/22 07:29:39;;;;;;;11.03;9.93;;;;;;;1.61;86.29;98205.96;1713891;82;21010;-58
2021/03/22 07:32:37;;;;;;;9.43;8.45;;;;;;;1.68;86.51;98210.13;1713846;82;21013;-57
2021/03/22 07:35:26;;;;;;;11.18;10.08;;;;;;;1.75;86.39;98212.50;1727885;81;21037;-57
2021/03/22 07:38:31;;;;;;;9.50;8.60;;;;;;;1.81;86.14;98216.69;1744663;81;21372;-58
2021/03/22 07:41:03;;;;;;;10.53;9.43;;;;;;;1.84;85.96;98220.81;1713792;82;20954;-59
2021/03/22 07:43:58;;;;;;;10.53;9.50;;;;;;;1.78;85.94;98232.70;1704639;82;21163;-60
2021/03/22 07:47:11;;;;;;;11.78;10.58;;;;;;;1.78;86.17;98227.94;1717045;82;21598;-59
2021/03/22 07:49:50;;;;;;;10.48;9.40;;;;;;;1.82;86.12;98236.70;1717159;82;21005;-57
2021/03/22 07:52:41;;;;;;;10.50;9.08;;;;;;;1.84;87.20;98239.17;1716231;82;21442;-56
2021/03/22 07:55:44;;;;;;;10.40;9.30;;;;;;;1.85;87.66;98246.08;1717107;82;21127;-56
2021/03/22 07:59:09;;;;;;;10.30;9.30;;;;;;;1.84;87.71;98243.11;1717139;82;21148;-57
2021/03/22 08:02:19;;;;;;;9.60;7.95;;;;;;;1.79;88.41;98239.62;1717038;82;21187;-57
2021/03/22 08:04:55;;;;;;;10.43;8.98;;;;;;;1.76;88.31;98250.88;1717152;82;21092;-59
2021/03/22 08:08:00;;;;;;;10.18;9.20;;;;;;;1.68;88.10;98240.27;1717214;82;21264;-58
2021/03/22 08:10:42;;;;;;;10.82;8.30;;;;;;;1.61;87.26;98249.22;1717071;82;21192;-56
2021/03/22 08:13:43;;;;;;;11.57;8.55;;;;;;;1.56;86.55;98247.52;1719149;82;21558;-57
2021/03/22 08:16:46;;;;;;;10.03;8.93;;;;;;;1.52;86.06;98246.13;1727923;82;21040;-58
2021/03/22 08:19:46;;;;;;;13.20;9.90;;;;;;;1.52;85.67;98250.06;1717231;82;21124;-60
2021/03/22 08:22:43;;;;;;;12.05;9.33;;;;;;;1.49;85.09;98246.89;1719021;82;21440;-59
2021/03/22 08:25:35;;;;;;;10.95;9.00;;;;;;;1.40;84.71;98247.77;1717089;82;21013;-57
2021/03/22 08:28:17;;;;;;;9.78;8.20;;;;;;;1.36;84.62;98252.93;1734847;82;21052;-56
2021/03/22 08:31:02;;;;;;;10.10;8.50;;;;;;;1.32;84.33;98250.27;1718522;82;21575;-59
2021/03/22 08:34:03;;;;;;;9.55;8.53;;;;;;;1.28;84.29;98260.19;1731392;80;21392;-58
2021/03/22 08:36:44;;;;;;;9.78;8.25;;;;;;;1.24;84.36;98267.53;1671410;80;21367;-58
2021/03/22 08:39:26;;;;;;;9.23;7.85;;;;;;;1.24;84.49;98275.87;1717057;82;21151;-59
2021/03/22 08:42:08;;;;;;;10.13;8.83;;;;;;;1.26;84.49;98275.23;1733513;82;21208;-57
2021/03/22 08:44:54;;;;;;;11.03;8.15;;;;;;;1.25;84.06;98277.02;1735797;81;21166;-60
2021/03/22 08:47:55;;;;;;;8.75;7.22;;;;;;;1.26;83.94;98280.47;1726652;81;21142;-58
2021/03/22 08:50:27;;;;;;;8.75;7.53;;;;;;;1.24;83.80;98287.18;1753450;81;21329;-58
2021/03/22 08:53:03;;;;;;;7.87;7.05;;;;;;;1.26;83.65;98290.95;1736388;81;21142;-64
2021/03/22 08:55:47;;;;;;;7.70;6.85;;;;;;;1.32;83.53;98289.57;1738633;81;21211;-60
2021/03/22 08:58:42;;;;;;;9.88;6.62;;;;;;;1.38;83.41;98296.40;1735198;81;21099;-60
2021/03/22 09:01:24;;;;;;;8.53;7.37;;;;;;;1.44;83.13;98293.19;1745000;81;21143;-58
2021/03/22 09:03:52;;;;;;;8.23;7.35;;;;;;;1.51;83.15;98298.70;1748296;81;22702;-57
2021/03/22 09:06:26;;;;;;;8.25;7.45;;;;;;;1.53;82.80;98302.84;1746233;81;20957;-58
2021/03/22 09:09:01;;;;;;;7.83;7.10;;;;;;;1.61;82.69;98299.50;1759443;79;21139;-58
2021/03/22 09:11:49;;;;;;;7.83;6.65;;;;;;;1.72;82.74;98303.27;1746258;81;21017;-57
2021/03/22 09:14:31;;;;;;;7.17;5.87;;;;;;;1.90;82.29;98296.30;1750654;81;21154;-59
2021/03/22 09:17:00;;;;;;;7.53;6.83;;;;;;;2.05;81.35;98301.88;1747713;81;21204;-59
2021/03/22 09:19:33;;;;;;;7.40;6.65;;;;;;;2.14;81.03;98301.83;1735520;81;21198;-61
2021/03/22 09:22:14;;;;;;;7.92;6.62;;;;;;;2.21;80.60;98306.02;1742878;81;21232;-58
2021/03/22 09:24:46;;;;;;;8.15;6.40;;;;;;;2.21;80.12;98304.23;1750792;81;21153;-60
2021/03/22 09:27:19;;;;;;;6.62;5.92;;;;;;;2.18;79.63;98311.08;1737240;81;21131;-59
2021/03/22 09:30:10;;;;;;;6.42;5.80;;;;;;;2.18;79.47;98316.33;1735663;81;21204;-59
2021/03/22 09:32:41;;;;;;;6.30;5.70;;;;;;;2.15;79.18;98327.11;1752030;81;21075;-60
2021/03/22 09:35:21;;;;;;;6.12;5.53;;;;;;;2.09;78.99;98330.30;1744690;81;21044;-61
2021/03/22 09:38:02;;;;;;;6.03;5.33;;;;;;;2.04;78.59;98329.91;1745634;80;21146;-60
2021/03/22 09:40:35;;;;;;;6.33;5.25;;;;;;;2.04;78.30;98336.95;1755196;81;21625;-59
2021/03/22 09:43:20;;;;;;;5.67;4.95;;;;;;;2.02;77.84;98333.65;1729941;81;21422;-58
2021/03/22 09:46:03;;;;;;;6.47;5.83;;;;;;;2.01;77.97;98338.58;1766555;79;20934;-60
2021/03/22 09:48:37;;;;;;;5.87;4.85;;;;;;;2.01;78.14;98342.00;1765300;79;21049;-61
2021/03/22 09:51:11;;;;;;;5.90;5.17;;;;;;;2.00;78.02;98340.36;1775655;79;21009;-60
2021/03/22 09:53:55;;;;;;;5.87;5.28;;;;;;;2.03;78.04;98344.02;1774690;79;21076;-62
2021/03/22 09:56:39;;;;;;;5.35;4.85;;;;;;;2.05;77.78;98346.48;1780215;79;21362;-66
2021/03/22 09:59:30;;;;;;;5.70;5.12;;;;;;;2.10;77.86;98346.39;1769556;78;21029;-62
2021/03/22 10:01:59;;;;;;;5.60;4.22;;;;;;;2.14;77.23;98351.68;1765600;79;21049;-62
2021/03/22 10:04:31;;;;;;;5.28;4.30;;;;;;;2.31;76.44;98350.93;1767779;79;21471;-62
2021/03/22 10:07:22;;;;;;;5.37;4.15;;;;;;;2.59;75.95;98354.84;1777254;78;21472;-60
2021/03/22 10:10:15;;;;;;;5.80;4.00;;;;;;;2.87;74.22;98349.88;1775458;79;21207;-60
2021/03/22 10:12:50;;;;;;;3.12;2.67;;;;;;;3.08;72.41;98354.36;1776960;79;21017;-60
2021/03/22 10:15:29;;;;;;;3.92;2.42;;;;;;;3.21;70.72;98352.17;1779118;79;21025;-59
2021/03/22 10:18:19;;;;;;;3.27;2.45;;;;;;;3.34;69.65;98355.73;1766405;79;21160;-61
2021/03/22 10:20:54;;;;;;;3.70;2.27;;;;;;;3.50;68.64;98367.22;1770075;79;21129;-59
2021/03/22 10:23:38;;;;;;;3.55;2.50;;;;;;;3.69;66.73;98356.52;1780536;79;21184;-59
2021/03/22 10:26:19;;;;;;;3.67;2.22;;;;;;;3.76;64.72;98361.97;1781636;79;21061;-60
2021/03/22 10:28:47;;;;;;;3.72;2.27;;;;;;;3.80;63.44;98358.55;1785451;78;21175;-61
2021/03/22 10:31:24;;;;;;;3.30;2.20;;;;;;;3.89;62.92;98372.08;1779491;79;21089;-62
2021/03/22 10:34:01;;;;;;;3.10;1.72;;;;;;;4.02;61.44;98365.42;1770795;78;21172;-60
2021/03/22 10:36:36;;;;;;;4.80;1.30;;;;;;;4.14;60.50;98369.95;1765487;78;21308;-59
2021/03/22 10:39:11;;;;;;;3.62;1.85;;;;;;;4.25;59.10;98371.80;1770410;79;21017;-60
2021/03/22 10:41:41;;;;;;;1.72;1.50;;;;;;;4.32;58.16;98379.91;1775198;78;21053;-58
2021/03/22 10:44:25;;;;;;;1.95;1.22;;;;;;;4.40;57.56;98376.00;1765466;78;20966;-58
2021/03/22 10:47:05;;;;;;;1.30;1.17;;;;;;;4.59;57.39;98377.05;1783554;79;21050;-57
2021/03/22 10:49:34;;;;;;;1.60;1.50;;;;;;;4.95;57.02;98364.49;1774400;78;21270;-57
2021/03/22 10:52:03;;;;;;;3.25;2.17;;;;;;;5.39;56.31;98365.86;1791906;79;21223;-60
2021/03/22 10:54:43;;;;;;;4.95;2.52;;;;;;;5.85;55.97;98364.38;1790341;79;21116;-58
2021/03/22 10:57:16;;;;;;;3.25;1.92;;;;;;;6.16;54.73;98371.91;1773433;79;21218;-61
2021/03/22 10:59:48;;;;;;;1.25;1.10;;;;;;;6.19;50.33;98370.73;1792221;79;21005;-57
2021/03/22 11:02:27;;;;;;;1.47;1.05;;;;;;;5.88;48.16;98365.86;1791423;79;21509;-59
2021/03/22 11:04:55;;;;;;;1.65;1.25;;;;;;;5.58;48.52;98374.75;1774433;79;21148;-59
2021/03/22 11:07:26;;;;;;;4.22;1.98;;;;;;;5.45;49.04;98374.42;1773152;78;21199;-58
2021/03/22 11:10:05;;;;;;;3.35;2.05;;;;;;;5.51;49.93;98375.58;1765889;79;21587;-57
2021/03/22 11:12:36;;;;;;;2.47;1.70;;;;;;;5.66;50.46;98369.16;1767553;79;22255;-58
2021/03/22 11:15:23;;;;;;;;;;;;;;;5.88;49.55;98373.77;1769484;79;21574;-60
2021/03/22 11:17:56;;;;;;;1.57;1.05;;;;;;;5.94;49.08;98360.75;1715045;80;20551;-60
2021/03/22 11:20:24;;;;;;;1.95;0.98;;;;;;;6.06;47.97;98365.16;1772651;79;21136;-61
2021/03/22 11:22:51;;;;;;;2.17;1.22;;;;;;;6.07;46.64;98368.14;1790513;79;21065;-58
2021/03/22 11:25:37;;;;;;;2.50;1.82;;;;;;;5.91;46.48;98369.00;1781267;78;21148;-60
2021/03/22 11:28:25;;;;;;;3.17;2.22;;;;;;;5.68;46.80;98382.52;1786263;78;21266;-60
2021/03/22 11:30:58;;;;;;;2.05;1.25;;;;;;;5.55;47.64;98376.91;1779734;79;21017;-58
2021/03/22 11:33:33;;;;;;;3.35;2.00;;;;;;;5.43;47.57;98370.30;1786367;78;21042;-60
2021/03/22 11:36:15;;;;;;;2.47;1.52;;;;;;;5.41;47.60;98370.97;1769979;79;21041;-60
2021/03/22 11:39:01;;;;;;;2.55;1.55;;;;;;;5.38;47.79;98370.80;1769491;79;21164;-60
2021/03/22 11:41:35;;;;;;;;;;;;;;;5.37;48.18;98373.61;1781283;79;21358;-60
2021/03/22 11:44:19;;;;;;;2.27;1.10;;;;;;;5.33;46.23;98382.34;1780123;79;20291;-60
2021/03/22 11:46:54;;;;;;;1.87;1.15;;;;;;;5.14;45.69;98381.31;1766146;79;21167;-61
2021/03/22 11:49:40;;;;;;;2.27;1.20;;;;;;;5.00;45.71;98388.03;1764608;79;21168;-60
2021/03/22 11:52:24;;;;;;;2.98;1.05;;;;;;;5.00;45.96;98387.23;1778914;79;21199;-61
2021/03/22 11:55:08;;;;;;;1.20;0.75;;;;;;;5.19;46.25;98384.80;1784589;79;21462;-60
2021/03/22 11:57:42;;;;;;;1.17;0.75;;;;;;;5.52;45.83;98373.28;1777896;79;21172;-59
2021/03/22 12:00:27;;;;;;;1.75;0.88;;;;;;;5.88;44.43;98381.69;1776493;79;20994;-61
2021/03/22 12:03:02;;;;;;;4.53;0.93;;;;;;;6.04;44.02;98385.63;1787400;78;21133;-59
2021/03/22 12:05:40;;;;;;;2.52;0.95;;;;;;;6.05;43.09;98381.48;1782162;79;21207;-60
2021/03/22 12:08:35;;;;;;;2.80;1.20;;;;;;;5.92;42.09;98381.19;1725365;82;21336;-61
2021/03/22 12:11:16;;;;;;;1.72;1.10;;;;;;;5.73;42.61;98380.20;1725534;82;21061;-61
2021/03/22 12:13:49;;;;;;;1.47;0.82;;;;;;;5.54;43.08;98382.68;1721251;82;21594;-59
2021/03/22 12:16:21;;;;;;;1.30;1.10;;;;;;;5.48;43.20;98377.22;1724911;82;21231;-60
2021/03/22 12:18:52;;;;;;;4.28;1.07;;;;;;;5.31;42.01;98387.45;1779089;79;21575;-60